createdAt,value
2023-07-07T00:01:10.430Z,99454.59
2023-07-07T00:03:40.559Z,99457.03
2023-07-07T00:06:09.297Z,99450.75
2023-07-07T00:08:38.086Z,99459.31
2023-07-07T00:11:06.900Z,99459.13
2023-07-07T00:13:35.694Z,99457.09
2023-07-07T00:16:05.276Z,99463.97
2023-07-07T00:18:34.103Z,99458.69
2023-07-07T00:21:04.535Z,99461.66
2023-07-07T00:23:33.801Z,99456.00
2023-07-07T00:26:05.148Z,99458.94
2023-07-07T00:28:35.201Z,99456.75
2023-07-07T00:31:04.892Z,99464.56
2023-07-07T00:33:34.004Z,99462.88
2023-07-07T00:36:04.664Z,99461.81
2023-07-07T00:38:33.533Z,99473.28
2023-07-07T00:41:03.156Z,99468.34
2023-07-07T00:43:32.355Z,99470.38
2023-07-07T00:46:02.004Z,99480.59
2023-07-07T00:48:37.126Z,99476.44
2023-07-07T00:51:23.614Z,99482.38
2023-07-07T00:53:57.623Z,99485.81
2023-07-07T00:56:35.740Z,99477.47
2023-07-07T00:59:12.169Z,99479.78
2023-07-07T01:01:42.808Z,99485.78
2023-07-07T01:04:19.028Z,99485.31
2023-07-07T01:06:55.871Z,99488.00
2023-07-07T01:09:24.656Z,99486.59
2023-07-07T01:11:53.347Z,99482.06
2023-07-07T01:14:27.816Z,99483.59
2023-07-07T01:17:15.735Z,99471.84
2023-07-07T01:20:32.008Z,99478.31
2023-07-07T01:23:46.446Z,99478.63
2023-07-07T01:26:54.774Z,99476.81
2023-07-07T01:29:50.374Z,99477.31
2023-07-07T01:32:25.465Z,99473.22
2023-07-07T01:35:00.391Z,99474.97
2023-07-07T01:37:29.415Z,99472.94
2023-07-07T01:39:58.546Z,99474.56
2023-07-07T01:42:41.676Z,99475.31
2023-07-07T01:45:19.018Z,99473.34
2023-07-07T01:48:02.857Z,99474.41
2023-07-07T01:50:35.687Z,99470.16
2023-07-07T01:53:14.226Z,99465.66
2023-07-07T01:55:51.941Z,99472.19
2023-07-07T01:58:23.024Z,99467.38
2023-07-07T02:00:57.188Z,99470.47
2023-07-07T02:03:30.606Z,99471.94
2023-07-07T02:05:59.479Z,99472.84
2023-07-07T02:08:28.449Z,99475.75
2023-07-07T02:10:57.471Z,99476.94
2023-07-07T02:13:26.585Z,99478.63
2023-07-07T02:15:55.312Z,99478.88
2023-07-07T02:18:28.048Z,99482.38
2023-07-07T02:20:58.686Z,99477.06
2023-07-07T02:23:27.641Z,99474.88
2023-07-07T02:25:56.383Z,99476.59
2023-07-07T02:28:25.068Z,99467.00
2023-07-07T02:30:55.811Z,99471.56
2023-07-07T02:33:32.427Z,99472.66
2023-07-07T02:36:08.791Z,99470.59
2023-07-07T02:38:38.130Z,99470.59
2023-07-07T02:41:07.044Z,99474.53
2023-07-07T02:43:35.725Z,99472.06
2023-07-07T02:46:04.588Z,99472.06
2023-07-07T02:48:33.834Z,99469.47
2023-07-07T02:51:07.855Z,99470.50
2023-07-07T02:53:39.185Z,99460.81
2023-07-07T02:56:08.798Z,99464.38
2023-07-07T02:58:37.729Z,99469.19
2023-07-07T03:01:15.236Z,99473.34
2023-07-07T03:03:51.142Z,99469.91
2023-07-07T03:06:24.983Z,99473.41
2023-07-07T03:08:55.895Z,99467.81
2023-07-07T03:11:26.696Z,99473.34
2023-07-07T03:13:57.350Z,99476.09
2023-07-07T03:16:32.687Z,99480.22
2023-07-07T03:19:11.414Z,99483.59
2023-07-07T03:21:56.254Z,99483.03
2023-07-07T03:24:48.319Z,99485.06
2023-07-07T03:27:30.345Z,99486.69
2023-07-07T03:29:59.978Z,99490.09
2023-07-07T03:32:29.911Z,99487.97
2023-07-07T03:35:04.218Z,99484.00
2023-07-07T03:37:34.877Z,99493.13
2023-07-07T03:40:04.632Z,99492.53
2023-07-07T03:42:33.492Z,99500.38
2023-07-07T03:45:02.489Z,99495.81
2023-07-07T03:47:33.357Z,99501.22
2023-07-07T03:50:02.685Z,99502.25
2023-07-07T03:52:36.768Z,99499.91
2023-07-07T03:55:07.019Z,99507.25
2023-07-07T03:57:40.129Z,99506.44
2023-07-07T04:00:12.904Z,99502.84
2023-07-07T04:02:46.700Z,99505.63
2023-07-07T04:05:16.730Z,99507.25
2023-07-07T04:07:48.913Z,99507.16
2023-07-07T04:10:19.183Z,99508.69
2023-07-07T04:12:53.966Z,99517.91
2023-07-07T04:15:26.012Z,99512.28
2023-07-07T04:17:55.627Z,99514.50
2023-07-07T04:20:25.664Z,99515.31
2023-07-07T04:22:55.946Z,99509.69
2023-07-07T04:25:25.676Z,99513.44
2023-07-07T04:27:55.158Z,99507.94
2023-07-07T04:30:24.638Z,99512.25
2023-07-07T04:32:53.841Z,99510.63
2023-07-07T04:35:23.139Z,99509.81
2023-07-07T04:37:52.870Z,99514.69
2023-07-07T04:40:23.580Z,99514.47
2023-07-07T04:42:52.555Z,99517.72
2023-07-07T04:45:21.308Z,99523.56
2023-07-07T04:47:50.125Z,99515.34
2023-07-07T04:50:19.192Z,99518.91
2023-07-07T04:52:47.804Z,99521.34
2023-07-07T04:55:16.842Z,99514.63
2023-07-07T04:57:47.611Z,99523.31
2023-07-07T05:00:17.397Z,99530.16
2023-07-07T05:02:46.702Z,99528.53
2023-07-07T05:05:15.834Z,99531.56
2023-07-07T05:07:45.364Z,99532.16
2023-07-07T05:10:14.228Z,99530.03
2023-07-07T05:12:42.932Z,99522.59
2023-07-07T05:15:13.314Z,99518.13
2023-07-07T05:17:42.077Z,99522.53
2023-07-07T05:20:11.934Z,99533.66
2023-07-07T05:22:40.690Z,99534.78
2023-07-07T05:25:10.013Z,99528.66
2023-07-07T05:27:38.626Z,99530.63
2023-07-07T05:30:09.407Z,99542.06
2023-07-07T05:32:39.503Z,99535.69
2023-07-07T05:35:09.282Z,99533.34
2023-07-07T05:37:37.901Z,99541.34
2023-07-07T05:40:08.702Z,99531.81
2023-07-07T05:42:37.433Z,99538.44
2023-07-07T05:45:07.641Z,99538.81
2023-07-07T05:47:36.524Z,99541.16
2023-07-07T05:50:08.784Z,99541.28
2023-07-07T05:52:37.758Z,99543.88
2023-07-07T05:55:08.104Z,99551.06
2023-07-07T05:57:36.809Z,99554.66
2023-07-07T06:00:06.983Z,99545.91
2023-07-07T06:02:41.429Z,99549.53
2023-07-07T06:05:11.763Z,99549.88
2023-07-07T06:07:40.578Z,99545.69
2023-07-07T06:10:12.770Z,99553.09
2023-07-07T06:12:42.803Z,99542.41
2023-07-07T06:15:12.270Z,99547.91
2023-07-07T06:17:41.326Z,99547.19
2023-07-07T06:20:13.236Z,99547.00
2023-07-07T06:22:41.988Z,99552.50
2023-07-07T06:25:11.746Z,99553.41
2023-07-07T06:27:40.476Z,99548.06
2023-07-07T06:30:11.764Z,99552.47
2023-07-07T06:32:40.483Z,99552.56
2023-07-07T06:35:11.324Z,99548.88
2023-07-07T06:37:40.131Z,99551.38
2023-07-07T06:40:10.505Z,99553.06
2023-07-07T06:42:39.180Z,99552.28
2023-07-07T06:45:12.650Z,99553.97
2023-07-07T06:47:41.513Z,99542.13
2023-07-07T06:50:23.156Z,99543.78
2023-07-07T06:52:51.867Z,99549.78
2023-07-07T06:55:20.587Z,99545.75
2023-07-07T06:57:49.243Z,99544.72
2023-07-07T07:00:19.139Z,99552.59
2023-07-07T07:02:48.918Z,99540.66
2023-07-07T07:05:19.406Z,99543.13
2023-07-07T07:07:49.123Z,99545.56
2023-07-07T07:10:18.384Z,99546.66
2023-07-07T07:12:48.665Z,99552.63
2023-07-07T07:15:17.869Z,99552.34
2023-07-07T07:17:46.912Z,99553.16
2023-07-07T07:20:19.061Z,99543.66
2023-07-07T07:22:48.972Z,99545.81
2023-07-07T07:25:18.010Z,99545.53
2023-07-07T07:27:46.700Z,99549.84
2023-07-07T07:30:16.851Z,99554.69
2023-07-07T07:32:45.790Z,99549.22
2023-07-07T07:35:15.114Z,99557.06
2023-07-07T07:37:45.216Z,99545.09
2023-07-07T07:40:14.616Z,99549.41
2023-07-07T07:42:43.479Z,99542.03
2023-07-07T07:45:20.456Z,99548.22
2023-07-07T07:47:49.794Z,99550.06
2023-07-07T07:50:20.143Z,99543.78
2023-07-07T07:52:50.647Z,99548.31
2023-07-07T07:55:19.506Z,99531.69
2023-07-07T07:57:48.250Z,99544.63
2023-07-07T08:00:18.033Z,99542.41
2023-07-07T08:02:47.484Z,99546.13
2023-07-07T08:05:16.922Z,99547.19
2023-07-07T08:07:45.665Z,99546.28
2023-07-07T08:10:15.781Z,99546.69
2023-07-07T08:12:44.514Z,99546.03
2023-07-07T08:15:14.972Z,99546.72
2023-07-07T08:17:43.856Z,99546.47
2023-07-07T08:20:19.159Z,99540.59
2023-07-07T08:22:48.012Z,99542.41
2023-07-07T08:25:18.162Z,99538.75
2023-07-07T08:30:20.307Z,99544.28
2023-07-07T08:32:49.482Z,99546.94
2023-07-07T08:35:18.381Z,99544.06
2023-07-07T08:37:47.088Z,99542.31
2023-07-07T08:40:23.450Z,99543.78
2023-07-07T08:42:53.980Z,99544.44
2023-07-07T08:45:25.529Z,99549.44
2023-07-07T08:48:16.949Z,99540.31
2023-07-07T08:50:52.539Z,99548.06
2023-07-07T08:54:01.092Z,99543.16
2023-07-07T08:56:52.177Z,99541.44
2023-07-07T08:59:35.285Z,99548.94
2023-07-07T09:02:16.196Z,99545.94
2023-07-07T09:04:57.032Z,99545.56
2023-07-07T09:07:56.820Z,99544.69
2023-07-07T09:10:52.630Z,99542.56
2023-07-07T09:13:29.675Z,99537.69
2023-07-07T09:16:11.885Z,99533.38
2023-07-07T09:18:51.094Z,99541.88
2023-07-07T09:21:33.932Z,99536.72
2023-07-07T09:24:13.847Z,99550.28
2023-07-07T09:26:47.138Z,99541.38
2023-07-07T09:29:25.691Z,99531.63
2023-07-07T09:31:54.770Z,99536.94
2023-07-07T09:34:25.924Z,99535.53
2023-07-07T09:37:10.267Z,99537.19
2023-07-07T09:40:01.700Z,99533.09
2023-07-07T09:42:48.532Z,99535.03
2023-07-07T09:45:46.353Z,99529.25
2023-07-07T09:48:28.009Z,99527.50
2023-07-07T09:51:10.362Z,99525.47
2023-07-07T09:53:47.333Z,99521.69
2023-07-07T09:56:26.604Z,99523.84
2023-07-07T09:59:07.354Z,99520.34
2023-07-07T10:01:46.214Z,99520.81
2023-07-07T10:04:20.652Z,99515.28
2023-07-07T10:06:58.494Z,99517.88
2023-07-07T10:09:29.854Z,99520.16
2023-07-07T10:14:33.580Z,99523.09
2023-07-07T10:17:22.438Z,99525.84
2023-07-07T10:19:57.247Z,99521.09
2023-07-07T10:22:26.013Z,99514.84
2023-07-07T10:24:54.794Z,99517.63
2023-07-07T10:27:28.892Z,99517.16
2023-07-07T10:30:05.423Z,99523.13
2023-07-07T10:32:35.597Z,99532.00
2023-07-07T10:35:10.268Z,99526.84
2023-07-07T10:37:39.613Z,99514.78
2023-07-07T10:40:16.035Z,99515.00
2023-07-07T10:42:45.306Z,99507.72
2023-07-07T10:45:15.237Z,99522.06
2023-07-07T10:47:45.547Z,99508.22
2023-07-07T10:50:18.790Z,99510.72
2023-07-07T10:55:57.933Z,99520.72
2023-07-07T10:58:48.417Z,99513.28
2023-07-07T11:01:32.087Z,99513.53
2023-07-07T11:04:46.133Z,99514.16
2023-07-07T11:07:29.454Z,99503.69
2023-07-07T11:10:39.426Z,99505.75
2023-07-07T11:13:20.755Z,99505.19
2023-07-07T11:16:04.329Z,99500.03
2023-07-07T11:19:00.445Z,99504.94
2023-07-07T11:21:45.073Z,99508.63
2023-07-07T11:24:47.876Z,99510.59
2023-07-07T11:27:44.849Z,99511.94
2023-07-07T11:30:27.982Z,99502.72
2023-07-07T11:33:14.184Z,99499.97
2023-07-07T11:36:08.954Z,99495.25
2023-07-07T11:39:04.603Z,99492.69
2023-07-07T11:41:54.781Z,99492.19
2023-07-07T11:44:52.030Z,99489.09
2023-07-07T11:47:47.464Z,99484.59
2023-07-07T11:50:43.706Z,99493.03
2023-07-07T11:54:16.061Z,99492.63
2023-07-07T11:58:01.327Z,99479.63
2023-07-07T12:00:49.652Z,99471.47
2023-07-07T12:03:49.630Z,99475.53
2023-07-07T12:06:33.561Z,99478.03
2023-07-07T12:09:33.256Z,99469.56
2023-07-07T12:12:12.309Z,99470.38
2023-07-07T12:14:59.148Z,99464.78
2023-07-07T12:17:38.235Z,99453.69
2023-07-07T12:20:16.028Z,99456.22
2023-07-07T12:22:48.212Z,99451.13
2023-07-07T12:25:26.167Z,99460.97
2023-07-07T12:27:57.045Z,99453.19
2023-07-07T12:30:31.940Z,99455.84
2023-07-07T12:33:01.282Z,99450.84
2023-07-07T12:35:37.607Z,99448.91
2023-07-07T12:38:28.047Z,99439.44
2023-07-07T12:41:00.961Z,99439.41
2023-07-07T12:43:37.043Z,99433.97
2023-07-07T12:46:18.848Z,99434.94
2023-07-07T12:48:56.659Z,99427.50
2023-07-07T12:51:48.461Z,99425.53
2023-07-07T12:54:32.690Z,99422.94
2023-07-07T12:57:05.338Z,99421.06
2023-07-07T12:59:40.212Z,99411.63
2023-07-07T13:02:20.565Z,99414.56
2023-07-07T13:05:01.703Z,99416.00
2023-07-07T13:07:34.060Z,99416.09
2023-07-07T13:10:06.257Z,99416.88
2023-07-07T13:12:48.626Z,99418.41
2023-07-07T13:15:23.361Z,99410.31
2023-07-07T13:17:57.984Z,99400.88
2023-07-07T13:20:29.034Z,99410.25
2023-07-07T13:23:07.353Z,99415.56
2023-07-07T13:25:38.461Z,99407.50
2023-07-07T13:28:15.472Z,99404.13
2023-07-07T13:30:47.231Z,99406.69
2023-07-07T13:33:21.326Z,99399.59
2023-07-07T13:35:54.448Z,99390.03
2023-07-07T13:38:27.415Z,99386.28
2023-07-07T13:40:57.729Z,99390.75
2023-07-07T13:43:31.478Z,99391.69
2023-07-07T13:46:10.887Z,99392.91
2023-07-07T13:48:48.740Z,99395.13
2023-07-07T13:51:21.905Z,99397.03
2023-07-07T13:53:50.778Z,99400.84
2023-07-07T13:56:19.784Z,99384.59
2023-07-07T13:58:53.589Z,99392.66
2023-07-07T14:01:30.001Z,99385.41
2023-07-07T14:04:05.018Z,99377.56
2023-07-07T14:06:35.260Z,99386.41
2023-07-07T14:09:04.146Z,99376.56
2023-07-07T14:11:38.033Z,99376.00
2023-07-07T14:14:06.944Z,99376.78
2023-07-07T14:16:42.301Z,99385.94
2023-07-07T14:19:23.338Z,99384.78
2023-07-07T14:21:52.777Z,99394.56
2023-07-07T14:24:29.182Z,99390.13
2023-07-07T14:26:59.371Z,99385.00
2023-07-07T14:29:34.803Z,99385.84
2023-07-07T14:32:09.474Z,99380.81
2023-07-07T14:34:51.151Z,99393.56
2023-07-07T14:37:24.754Z,99386.38
2023-07-07T14:39:55.905Z,99376.78
2023-07-07T14:42:28.113Z,99382.47
2023-07-07T14:44:58.788Z,99373.38
2023-07-07T14:47:33.095Z,99376.53
2023-07-07T14:50:09.344Z,99375.50
2023-07-07T14:52:44.695Z,99377.63
2023-07-07T14:55:19.319Z,99382.16
2023-07-07T14:57:52.009Z,99382.25
2023-07-07T15:00:38.739Z,99386.78
2023-07-07T15:03:41.936Z,99387.03
2023-07-07T15:06:25.125Z,99377.09
2023-07-07T15:08:56.359Z,99375.88
2023-07-07T15:11:34.493Z,99371.56
2023-07-07T15:14:05.688Z,99374.56
2023-07-07T15:16:35.562Z,99373.34
2023-07-07T15:19:17.205Z,99375.47
2023-07-07T15:21:48.678Z,99372.31
2023-07-07T15:24:18.490Z,99367.28
2023-07-07T15:26:47.859Z,99360.47
2023-07-07T15:29:21.024Z,99364.63
2023-07-07T15:31:51.235Z,99361.63
2023-07-07T15:34:21.813Z,99361.75
2023-07-07T15:36:52.255Z,99368.28
2023-07-07T15:39:21.136Z,99359.91
2023-07-07T15:41:49.843Z,99367.44
2023-07-07T15:44:18.816Z,99367.03
2023-07-07T15:46:50.211Z,99356.72
2023-07-07T15:49:20.842Z,99355.25
2023-07-07T15:51:49.900Z,99345.44
2023-07-07T15:54:20.537Z,99361.69
2023-07-07T15:56:50.754Z,99346.59
2023-07-07T15:59:24.396Z,99344.94
2023-07-07T16:01:55.674Z,99345.84
2023-07-07T16:04:25.174Z,99352.09
2023-07-07T16:06:54.684Z,99351.88
2023-07-07T16:09:25.047Z,99341.97
2023-07-07T16:11:53.879Z,99349.69
2023-07-07T16:14:22.723Z,99356.00
2023-07-07T16:16:51.433Z,99349.25
2023-07-07T16:19:22.155Z,99350.41
2023-07-07T16:21:51.124Z,99352.75
2023-07-07T16:24:19.834Z,99352.81
2023-07-07T16:26:50.922Z,99352.16
2023-07-07T16:29:20.856Z,99340.25
2023-07-07T16:31:50.071Z,99342.00
2023-07-07T16:34:20.359Z,99348.91
2023-07-07T16:36:49.124Z,99344.00
2023-07-07T16:39:21.845Z,99346.13
2023-07-07T16:41:52.132Z,99340.88
2023-07-07T16:44:20.898Z,99350.06
2023-07-07T16:46:50.260Z,99353.06
2023-07-07T16:49:19.186Z,99355.81
2023-07-07T16:51:47.866Z,99347.31
2023-07-07T16:54:16.634Z,99351.22
2023-07-07T16:56:45.418Z,99349.06
2023-07-07T16:59:18.605Z,99351.94
2023-07-07T17:01:48.951Z,99350.41
2023-07-07T17:04:18.328Z,99351.91
2023-07-07T17:06:47.574Z,99350.97
2023-07-07T17:09:20.496Z,99354.28
2023-07-07T17:11:49.291Z,99358.41
2023-07-07T17:14:19.389Z,99360.59
2023-07-07T17:16:48.094Z,99358.94
2023-07-07T17:19:22.432Z,99358.00
2023-07-07T17:21:52.483Z,99347.78
2023-07-07T17:24:21.495Z,99354.16
2023-07-07T17:26:52.442Z,99355.84
2023-07-07T17:29:22.738Z,99356.72
2023-07-07T17:31:51.553Z,99357.75
2023-07-07T17:34:20.429Z,99351.16
2023-07-07T17:36:49.052Z,99350.91
2023-07-07T17:39:20.253Z,99350.75
2023-07-07T17:41:49.710Z,99353.16
2023-07-07T17:44:18.509Z,99359.69
2023-07-07T17:46:48.640Z,99359.72
2023-07-07T17:49:20.686Z,99353.78
2023-07-07T17:51:50.157Z,99353.88
2023-07-07T17:54:18.908Z,99357.16
2023-07-07T17:56:47.637Z,99354.13
2023-07-07T17:59:22.622Z,99362.09
2023-07-07T18:01:56.095Z,99361.66
2023-07-07T18:04:24.976Z,99358.78
2023-07-07T18:06:55.770Z,99362.38
2023-07-07T18:09:24.550Z,99361.13
2023-07-07T18:11:53.847Z,99359.47
2023-07-07T18:14:25.297Z,99355.81
2023-07-07T18:16:59.252Z,99359.88
2023-07-07T18:20:32.822Z,99357.13
2023-07-07T18:22:33.296Z,99362.47
2023-07-07T18:25:01.967Z,99372.84
2023-07-07T18:27:30.696Z,99367.50
2023-07-07T18:29:59.332Z,99373.47
2023-07-07T18:32:29.484Z,99379.44
2023-07-07T18:35:39.410Z,99374.94
2023-07-07T18:37:47.190Z,99378.16
2023-07-07T18:40:21.437Z,99381.84
2023-07-07T18:42:53.982Z,99380.34
2023-07-07T18:45:22.913Z,99381.31
2023-07-07T18:47:57.647Z,99375.81
2023-07-07T18:50:30.564Z,99388.34
2023-07-07T18:53:00.587Z,99390.75
2023-07-07T18:55:30.829Z,99387.16
2023-07-07T18:57:59.592Z,99391.25
2023-07-07T19:00:38.787Z,99393.97
2023-07-07T19:03:11.767Z,99395.84
2023-07-07T19:05:41.314Z,99393.06
2023-07-07T19:08:13.916Z,99402.84
2023-07-07T19:10:46.490Z,99407.44
2023-07-07T19:13:19.126Z,99402.38
2023-07-07T19:15:52.722Z,99411.81
2023-07-07T19:18:41.304Z,99405.22
2023-07-07T19:21:25.015Z,99409.78
2023-07-07T19:23:55.630Z,99411.66
2023-07-07T19:26:28.663Z,99416.88
2023-07-07T19:28:59.344Z,99423.56
2023-07-07T19:31:28.410Z,99420.56
2023-07-07T19:34:00.674Z,99424.28
2023-07-07T19:36:33.125Z,99428.47
2023-07-07T19:39:01.855Z,99423.00
2023-07-07T19:41:34.837Z,99427.25
2023-07-07T19:44:04.473Z,99433.53
2023-07-07T19:46:37.096Z,99434.34
2023-07-07T19:49:18.937Z,99431.69
2023-07-07T19:51:49.113Z,99438.88
2023-07-07T19:54:17.971Z,99440.16
2023-07-07T19:56:48.832Z,99439.84
2023-07-07T19:59:21.699Z,99439.97
2023-07-07T20:01:51.263Z,99443.78
2023-07-07T20:04:21.653Z,99444.16
2023-07-07T20:06:50.589Z,99445.88
2023-07-07T20:09:23.121Z,99442.28
2023-07-07T20:11:55.007Z,99444.56
2023-07-07T20:14:26.156Z,99442.81
2023-07-07T20:16:56.963Z,99435.75
2023-07-07T20:19:28.276Z,99436.50
2023-07-07T20:21:57.502Z,99439.97
2023-07-07T20:24:28.615Z,99437.25
2023-07-07T20:27:04.221Z,99440.19
2023-07-07T20:29:33.388Z,99443.53
2023-07-07T20:32:03.355Z,99442.44
2023-07-07T20:34:34.756Z,99443.47
2023-07-07T20:37:03.903Z,99444.41
2023-07-07T20:39:33.630Z,99448.53
2023-07-07T20:42:03.008Z,99448.34
2023-07-07T20:44:32.128Z,99453.59
2023-07-07T20:47:01.407Z,99460.56
2023-07-07T20:49:30.120Z,99458.63
2023-07-07T20:52:00.363Z,99458.91
2023-07-07T20:54:29.315Z,99457.13
2023-07-07T20:57:01.785Z,99457.88
2023-07-07T20:59:36.833Z,99462.97
2023-07-07T21:02:12.778Z,99463.03
2023-07-07T21:04:42.580Z,99461.50
2023-07-07T21:07:14.666Z,99457.19
2023-07-07T21:09:44.239Z,99465.34
2023-07-07T21:12:13.969Z,99467.59
2023-07-07T21:14:42.973Z,99464.38
2023-07-07T21:17:16.643Z,99471.53
2023-07-07T21:19:45.936Z,99464.75
2023-07-07T21:22:15.955Z,99463.75
2023-07-07T21:24:44.582Z,99468.47
2023-07-07T21:27:13.889Z,99471.16
2023-07-07T21:29:44.522Z,99470.09
2023-07-07T21:32:14.599Z,99469.06
2023-07-07T21:34:43.806Z,99460.13
2023-07-07T21:37:14.222Z,99465.34
2023-07-07T21:39:44.555Z,99464.53
2023-07-07T21:42:14.327Z,99471.63
2023-07-07T21:44:45.665Z,99476.84
2023-07-07T21:47:18.079Z,99467.09
2023-07-07T21:49:50.062Z,99473.06
2023-07-07T21:52:21.192Z,99477.19
2023-07-07T21:54:52.533Z,99477.50
2023-07-07T21:57:43.536Z,99476.44
2023-07-07T22:00:21.372Z,99474.56
2023-07-07T22:02:53.683Z,99475.63
2023-07-07T22:05:24.893Z,99471.59
2023-07-07T22:07:54.939Z,99471.09
2023-07-07T22:10:38.941Z,99477.06
2023-07-07T22:13:09.399Z,99473.03
2023-07-07T22:15:39.711Z,99476.03
2023-07-07T22:18:17.118Z,99473.88
2023-07-07T22:20:53.536Z,99481.50
2023-07-07T22:23:22.329Z,99477.13
2023-07-07T22:25:53.664Z,99474.91
2023-07-07T22:28:26.544Z,99472.53
2023-07-07T22:30:58.751Z,99477.72
2023-07-07T22:33:30.506Z,99471.50
2023-07-07T22:36:02.026Z,99465.25
2023-07-07T22:38:31.338Z,99471.22
2023-07-07T22:41:02.197Z,99471.78
2023-07-07T22:43:31.773Z,99466.38
2023-07-07T22:46:04.690Z,99469.63
2023-07-07T22:48:34.241Z,99462.59
2023-07-07T22:51:04.297Z,99462.03
2023-07-07T22:53:33.294Z,99466.94
2023-07-07T22:56:04.300Z,99471.84
2023-07-07T22:58:33.931Z,99467.50
2023-07-07T23:01:04.008Z,99468.31
2023-07-07T23:03:33.893Z,99464.22
2023-07-07T23:06:03.547Z,99464.50
2023-07-07T23:08:33.169Z,99462.63
2023-07-07T23:11:04.532Z,99459.13
2023-07-07T23:13:33.903Z,99464.53
2023-07-07T23:16:03.293Z,99458.56
2023-07-07T23:18:33.389Z,99456.09
2023-07-07T23:21:02.412Z,99456.69
2023-07-07T23:23:31.128Z,99456.66
2023-07-07T23:26:00.566Z,99455.56
2023-07-07T23:28:30.632Z,99450.13
2023-07-07T23:31:07.146Z,99457.69
2023-07-07T23:33:38.470Z,99455.53
2023-07-07T23:36:20.230Z,99451.22
2023-07-07T23:38:49.172Z,99455.81
2023-07-07T23:41:18.773Z,99453.34
2023-07-07T23:43:48.874Z,99450.06
2023-07-07T23:46:21.184Z,99440.31
2023-07-07T23:48:51.479Z,99443.03
2023-07-07T23:51:24.185Z,99437.88
2023-07-07T23:53:53.608Z,99429.19
2023-07-07T23:56:25.524Z,99425.38
2023-07-07T23:58:55.618Z,99419.69
